Terminal Aerodrome Forecast
Issued by NWS Tampa Bay Area, FL

Home | Current Version | Previous Version | Text Only | Print | Product List | Glossary On
Versions: 1 2 3 4 5 6 7 8 9 10 11 12 13 14
000
FTUS42 KTBW 162300
TAFSRQ
TAF
KSRQ 162329Z 1700/1724 33009KT P6SM VCSH SCT050 BKN100
     FM170600 25006KT P6SM VCTS SCT035CB BKN250
     FM171200 27005KT P6SM VCTS BKN035CB OVC100
     FM171700 28008KT P6SM VCTS BKN030CB OVC100
     FM172200 29006KT P6SM VCTS SCT025CB BKN050 OVC100=

USA.gov is the U.S. government's official web portal to all federal, state and local government web resources and services.